Time;durP1;ratioP1;P1;durP2;ratioP2;P2;SDS_P1;SDS_P2;PMS_P1;PMS_P2;Temp;Humidity;BMP_temperature;BMP_pressure;BME280_temperature;BME280_humidity;BME280_pressure;Samples;Min_cycle;Max_cycle;Signal;HPM_P1;HPM_P2
2023/04/15 00:00:14;;;;;;;5.13;4.63;;;;;;;12.89;100.00;98631.94;5039260;28;21371;-50
2023/04/15 00:03:00;;;;;;;5.10;4.43;;;;;;;12.82;100.00;98627.97;5038310;28;20209;-50
2023/04/15 00:05:55;;;;;;;4.60;3.83;;;;;;;12.83;100.00;98624.47;5027301;28;20200;-54
2023/04/15 00:08:42;;;;;;;4.87;4.10;;;;;;;12.90;100.00;98618.00;5028181;28;20217;-55
2023/04/15 00:11:32;;;;;;;4.80;4.30;;;;;;;12.85;100.00;98625.22;5039405;28;20284;-55
2023/04/15 00:14:27;;;;;;;6.93;4.27;;;;;;;12.88;100.00;98631.09;5039686;28;20228;-55
2023/04/15 00:17:08;;;;;;;5.20;4.80;;;;;;;12.86;100.00;98632.97;5038441;28;20248;-55
2023/04/15 00:19:56;;;;;;;5.63;5.13;;;;;;;12.76;100.00;98642.13;5037235;28;20942;-55
2023/04/15 00:22:38;;;;;;;6.27;5.23;;;;;;;12.81;100.00;98652.34;5037952;28;20245;-55
2023/04/15 00:25:27;;;;;;;4.90;4.50;;;;;;;12.93;100.00;98647.34;5041693;28;20288;-55
2023/04/15 00:28:26;;;;;;;6.03;5.43;;;;;;;12.99;100.00;98648.75;5037832;28;20215;-55
2023/04/15 00:31:05;;;;;;;5.73;5.00;;;;;;;12.87;100.00;98649.41;5043244;28;20196;-55
2023/04/15 00:33:46;;;;;;;6.00;5.30;;;;;;;12.91;100.00;98645.72;5042910;28;20200;-50
2023/04/15 00:36:30;;;;;;;10.17;5.57;;;;;;;12.87;100.00;98632.00;5041795;28;20197;-50
2023/04/15 00:39:17;;;;;;;5.63;4.93;;;;;;;12.87;100.00;98624.19;5074900;28;20223;-50
2023/04/15 00:42:18;;;;;;;5.93;5.40;;;;;;;12.85;100.00;98633.03;5076372;28;20187;-49
2023/04/15 00:45:18;;;;;;;8.47;5.70;;;;;;;12.79;100.00;98628.97;5083280;28;20196;-54
2023/04/15 00:48:07;;;;;;;5.60;5.00;;;;;;;12.77;100.00;98632.56;5082590;28;20219;-54
2023/04/15 00:50:55;;;;;;;6.33;5.37;;;;;;;12.73;100.00;98629.31;5082910;28;20187;-55
2023/04/15 00:53:53;;;;;;;;;;;;;;;;;;;;;
2023/04/15 00:56:42;;;;;;;6.70;5.67;;;;;;;12.61;100.00;98624.72;5075076;28;20200;-55
2023/04/15 00:59:34;;;;;;;8.60;6.07;;;;;;;12.61;100.00;98622.97;5080917;28;20223;-54
2023/04/15 01:02:29;;;;;;;6.33;5.77;;;;;;;12.61;100.00;98622.97;5081479;28;20188;-54
2023/04/15 01:05:18;;;;;;;8.30;6.20;;;;;;;12.58;100.00;98617.91;5070908;28;20196;-55
2023/04/15 01:08:05;;;;;;;11.40;5.67;;;;;;;12.52;100.00;98609.59;5074396;28;20215;-55
2023/04/15 01:10:57;;;;;;;18.43;5.07;;;;;;;12.38;100.00;98607.69;5078830;28;20560;-55
2023/04/15 01:13:43;;;;;;;6.07;5.53;;;;;;;12.36;100.00;98607.75;5075304;28;20253;-56
2023/04/15 01:16:27;;;;;;;13.27;7.80;;;;;;;12.32;100.00;98631.38;5081349;28;20200;-54
2023/04/15 01:19:23;;;;;;;8.67;5.60;;;;;;;12.30;100.00;98634.06;5071164;28;20280;-54
2023/04/15 01:22:19;;;;;;;5.70;5.20;;;;;;;12.23;100.00;98637.88;5071248;28;20192;-54
2023/04/15 01:25:09;;;;;;;8.83;5.73;;;;;;;12.20;100.00;98638.03;5081450;28;20196;-55
2023/04/15 01:28:10;;;;;;;6.30;4.63;;;;;;;12.11;100.00;98648.91;5079277;28;20188;-54
2023/04/15 01:31:09;;;;;;;6.90;5.30;;;;;;;12.05;100.00;98641.41;5079781;28;20282;-55
2023/04/15 01:34:03;;;;;;;5.57;5.10;;;;;;;12.06;100.00;98639.66;5079724;28;20279;-55
2023/04/15 01:36:50;;;;;;;6.33;5.20;;;;;;;12.01;100.00;98632.06;5078561;28;20194;-51
2023/04/15 01:42:27;;;;;;;5.13;4.63;;;;;;;11.73;100.00;98622.13;5081050;28;20231;-51
2023/04/15 01:45:29;;;;;;;6.07;5.10;;;;;;;11.71;100.00;98646.50;5067988;28;20200;-50
2023/04/15 01:51:27;;;;;;;5.37;4.97;;;;;;;11.77;100.00;98646.22;5067221;28;20200;-50
2023/04/15 01:54:22;;;;;;;6.07;4.77;;;;;;;11.80;100.00;98646.09;5081899;28;20187;-50
2023/04/15 01:57:12;;;;;;;5.73;4.80;;;;;;;11.77;100.00;98660.06;5081921;28;20298;-50
2023/04/15 02:00:04;;;;;;;4.50;4.20;;;;;;;11.65;100.00;98677.06;5079983;28;20257;-51
2023/04/15 02:03:02;;;;;;;3.87;3.57;;;;;;;11.50;100.00;98692.53;5081334;28;20253;-55
2023/04/15 02:05:50;;;;;;;6.40;4.83;;;;;;;11.50;100.00;98689.94;5069714;28;20196;-55
2023/04/15 02:08:49;;;;;;;7.00;4.30;;;;;;;11.45;100.00;98687.53;5076181;28;20605;-55
2023/04/15 02:11:39;;;;;;;4.50;4.10;;;;;;;11.39;100.00;98695.63;5080466;28;20191;-49
2023/04/15 02:14:35;;;;;;;7.50;4.80;;;;;;;11.27;100.00;98675.38;5079834;28;20641;-52
2023/04/15 02:17:31;;;;;;;4.53;4.13;;;;;;;11.29;100.00;98686.53;5074068;28;20295;-51
2023/04/15 02:20:26;;;;;;;5.57;4.50;;;;;;;11.38;100.00;98690.47;5078556;28;20551;-50
2023/04/15 02:23:09;;;;;;;5.27;4.03;;;;;;;11.32;100.00;98676.00;5074531;28;20192;-51
2023/04/15 02:25:58;;;;;;;5.50;3.90;;;;;;;11.33;100.00;98680.28;5077632;28;20206;-51
2023/04/15 02:28:47;;;;;;;6.27;3.80;;;;;;;11.23;100.00;98672.06;5077987;28;20242;-51
2023/04/15 02:31:29;;;;;;;4.67;4.00;;;;;;;11.24;100.00;98678.09;5080866;28;20273;-51
2023/04/15 02:34:17;;;;;;;5.13;4.00;;;;;;;11.25;100.00;98677.19;5081115;28;20198;-50
2023/04/15 02:37:26;;;;;;;;;;;;;;;;;;;;;
2023/04/15 02:40:11;;;;;;;4.20;3.80;;;;;;;11.28;100.00;98661.47;5058002;28;20207;-51
2023/04/15 02:43:08;;;;;;;8.20;3.30;;;;;;;11.36;100.00;98664.56;5049374;28;20578;-50
2023/04/15 02:45:59;;;;;;;4.33;3.27;;;;;;;11.40;100.00;98666.09;5057006;28;20279;-55
2023/04/15 02:48:53;;;;;;;3.50;3.20;;;;;;;11.44;100.00;98670.25;5058561;28;20606;-55
2023/04/15 02:51:58;;;;;;;7.00;3.60;;;;;;;11.52;100.00;98691.53;5057697;28;20196;-51
2023/04/15 02:55:07;;;;;;;6.03;3.17;;;;;;;11.46;100.00;98703.97;5057738;28;20581;-51
2023/04/15 02:57:59;;;;;;;4.43;3.00;;;;;;;11.42;100.00;98699.81;5051638;28;20284;-49
2023/04/15 03:00:51;;;;;;;;;;;;;;;;;;;;;
2023/04/15 03:03:49;;;;;;;4.27;3.57;;;;;;;11.42;100.00;98705.84;5057947;28;20203;-55
2023/04/15 03:06:38;;;;;;;6.00;3.30;;;;;;;11.50;100.00;98688.19;5060340;28;20200;-50
2023/04/15 03:09:27;;;;;;;3.87;2.70;;;;;;;11.48;100.00;98682.19;5056895;28;20224;-54
2023/04/15 03:12:23;;;;;;;6.47;2.80;;;;;;;11.48;98.79;98677.00;5060126;28;20203;-49
2023/04/15 03:15:12;;;;;;;5.60;2.70;;;;;;;11.39;98.47;98677.44;5058914;28;20224;-54
2023/04/15 03:18:02;;;;;;;3.07;2.67;;;;;;;11.47;97.10;98693.50;5054690;28;20215;-54
2023/04/15 03:21:01;;;;;;;2.70;2.50;;;;;;;11.52;95.53;98703.66;5046598;28;20220;-49
2023/04/15 03:23:56;;;;;;;3.17;2.87;;;;;;;11.46;94.93;98711.75;5048394;28;20193;-50
2023/04/15 03:26:28;;;;;;;3.00;2.50;;;;;;;11.54;94.41;98723.47;5048671;28;20197;-49
2023/04/15 03:35:30;;;;;;;5.43;3.03;;;;;;;11.35;96.06;98720.03;5049024;28;20205;-50
2023/04/15 03:38:19;;;;;;;3.20;3.00;;;;;;;11.22;95.66;98718.88;5054870;28;20219;-51
2023/04/15 03:41:14;;;;;;;;;;;;;;;;;;;;;
2023/04/15 03:44:07;;;;;;;4.50;3.73;;;;;;;11.03;97.15;98762.16;5072855;28;20228;-51
2023/04/15 03:46:54;;;;;;;4.73;3.07;;;;;;;10.99;97.43;98770.97;5074434;28;20275;-51
2023/04/15 03:49:40;;;;;;;3.60;2.97;;;;;;;10.86;97.62;98758.50;5077805;28;20223;-50
2023/04/15 03:52:20;;;;;;;3.47;3.17;;;;;;;10.73;98.40;98748.69;5076322;28;20191;-51
2023/04/15 03:55:15;;;;;;;5.83;2.77;;;;;;;10.66;99.37;98755.06;5079025;28;20248;-56
2023/04/15 03:58:08;;;;;;;3.27;2.97;;;;;;;10.67;99.21;98760.19;5078643;28;20192;-55
2023/04/15 04:01:07;;;;;;;4.03;3.00;;;;;;;10.66;99.29;98761.09;5083776;28;20192;-55
2023/04/15 04:04:11;;;;;;;2.83;2.63;;;;;;;10.63;99.72;98771.59;5083880;28;20188;-55
2023/04/15 04:07:05;;;;;;;3.83;3.03;;;;;;;10.58;100.00;98780.47;5081314;28;20202;-55
2023/04/15 04:10:01;;;;;;;4.20;2.90;;;;;;;10.56;100.00;98767.56;5083153;28;20715;-56
2023/04/15 04:12:45;;;;;;;4.50;3.27;;;;;;;10.56;100.00;98764.97;5075651;28;20200;-54
2023/04/15 04:15:39;;;;;;;3.63;3.33;;;;;;;10.50;100.00;98766.03;5082413;28;20282;-56
2023/04/15 04:21:32;;;;;;;4.90;3.20;;;;;;;10.51;100.00;98777.28;5082227;28;20192;-56
2023/04/15 04:24:12;;;;;;;4.73;3.20;;;;;;;10.53;99.13;98785.84;5081049;28;20673;-56
2023/04/15 04:27:12;;;;;;;4.23;3.00;;;;;;;10.50;97.95;98771.22;5075515;28;20230;-54
2023/04/15 04:30:07;;;;;;;2.90;2.70;;;;;;;11.05;94.78;98775.91;5077630;28;20218;-50
2023/04/15 04:35:51;;;;;;;4.80;2.73;;;;;;;13.70;75.77;98784.91;5075072;28;20203;-49
2023/04/15 04:38:47;;;;;;;3.87;2.53;;;;;;;15.05;66.22;98792.16;5080276;28;20228;-51
2023/04/15 04:41:41;;;;;;;3.90;2.40;;;;;;;16.11;60.99;98785.69;5082450;28;20199;-54
2023/04/15 04:44:29;;;;;;;4.17;3.00;;;;;;;17.27;57.45;98799.91;5080955;28;20228;-54
2023/04/15 04:47:16;;;;;;;5.33;2.93;;;;;;;18.01;52.89;98811.47;5082821;28;20191;-55
2023/04/15 04:50:10;;;;;;;3.03;2.83;;;;;;;18.71;51.12;98807.31;5080817;28;20264;-55
2023/04/15 04:52:42;;;;;;;8.35;3.63;;;;;;;20.09;47.47;98822.19;5078296;28;20278;-55
2023/04/15 04:55:26;;;;;;;3.63;3.25;;;;;;;20.58;45.95;98815.69;5080956;28;20191;-56
2023/04/15 04:58:07;;;;;;;2.83;2.63;;;;;;;21.44;44.09;98825.31;5071809;28;20238;-56
2023/04/15 05:00:53;;;;;;;3.13;2.90;;;;;;;22.31;42.45;98835.34;5070710;28;20788;-56
2023/04/15 05:03:52;;;;;;;3.63;2.42;;;;;;;23.00;40.94;98845.94;5071483;28;20204;-52
2023/04/15 05:06:46;;;;;;;5.55;3.60;;;;;;;23.91;38.79;98841.94;5070988;28;20200;-56
2023/04/15 05:09:35;;;;;;;5.20;4.72;;;;;;;24.72;36.60;98840.25;5069870;28;20263;-56
2023/04/15 05:12:31;;;;;;;5.45;4.72;;;;;;;24.89;35.89;98834.16;5068933;28;20196;-56
2023/04/15 05:17:57;;;;;;;3.90;3.45;;;;;;;25.55;34.83;98839.03;5070067;28;20196;-56
2023/04/15 05:20:51;;;;;;;4.00;2.80;;;;;;;25.61;34.22;98832.31;5071201;28;20194;-56
2023/04/15 05:23:43;;;;;;;10.13;3.08;;;;;;;26.28;33.18;98838.69;5069514;28;20224;-57
2023/04/15 05:26:36;;;;;;;3.80;3.50;;;;;;;26.93;32.43;98839.72;5070269;28;20231;-56
2023/04/15 05:29:57;;;;;;;4.03;3.47;;;;;;;26.62;33.02;98847.47;5070270;28;20315;-56
2023/04/15 05:32:56;;;;;;;3.53;3.33;;;;;;;27.10;32.41;98851.22;5070936;28;20192;-52
2023/04/15 05:35:43;;;;;;;14.57;3.58;;;;;;;26.34;33.39;98852.16;5071787;28;20612;-52
2023/04/15 05:38:40;;;;;;;37.58;4.88;;;;;;;26.32;33.37;98871.94;5069396;28;20224;-56
2023/04/15 05:41:33;;;;;;;18.65;3.70;;;;;;;25.94;33.54;98874.06;5070703;28;20437;-56
2023/04/15 05:44:31;;;;;;;8.88;3.33;;;;;;;26.06;33.08;98871.13;5071079;28;20632;-56
2023/04/15 05:47:36;;;;;;;25.75;4.53;;;;;;;26.62;32.17;98868.75;5070620;28;20195;-57
2023/04/15 05:50:21;;;;;;;5.45;2.90;;;;;;;26.53;32.34;98869.69;5068373;28;20254;-56
2023/04/15 05:53:27;;;;;;;4.75;2.80;;;;;;;26.44;32.31;98865.34;5068778;28;20195;-56
2023/04/15 05:56:12;;;;;;;2.33;2.13;;;;;;;26.17;32.97;98874.34;5070495;28;20192;-55
2023/04/15 05:58:42;;;;;;;9.30;3.10;;;;;;;25.55;34.13;98876.25;5070188;28;20192;-52
2023/04/15 06:01:29;;;;;;;4.90;2.40;;;;;;;25.28;34.53;98881.69;5071089;28;20707;-53
2023/04/15 06:04:17;;;;;;;9.90;3.17;;;;;;;24.97;35.00;98889.16;5071183;28;20196;-53
2023/04/15 06:07:01;;;;;;;8.55;3.17;;;;;;;25.55;34.27;98891.34;5069665;28;20733;-53
2023/04/15 06:10:00;;;;;;;70.57;7.15;;;;;;;25.66;33.98;98886.66;5070617;28;20667;-52
2023/04/15 06:12:48;;;;;;;11.63;3.40;;;;;;;26.65;32.56;98894.19;5070588;28;20200;-52
2023/04/15 06:15:24;;;;;;;11.40;2.90;;;;;;;26.98;32.04;98901.31;5069059;28;20196;-51
2023/04/15 06:18:10;;;;;;;3.20;3.00;;;;;;;28.10;30.91;98906.81;5070275;28;20239;-52
2023/04/15 06:20:59;;;;;;;3.97;3.17;;;;;;;28.45;30.12;98907.41;5069866;28;20188;-52
2023/04/15 06:23:48;;;;;;;3.03;2.65;;;;;;;29.50;28.90;98919.41;5069974;28;20258;-51
2023/04/15 06:26:37;;;;;;;3.67;2.50;;;;;;;29.52;28.78;98918.22;5069256;28;20192;-51
2023/04/15 06:29:07;;;;;;;4.88;2.28;;;;;;;28.52;29.62;98914.59;5069497;28;20556;-51
2023/04/15 06:31:55;;;;;;;3.97;3.03;;;;;;;28.66;30.30;98921.03;5068291;28;20200;-52
2023/04/15 06:34:41;;;;;;;3.30;3.00;;;;;;;29.47;29.31;98911.72;5069631;28;20202;-52
2023/04/15 06:37:31;;;;;;;2.78;2.42;;;;;;;29.64;29.00;98920.47;5068964;28;20230;-51
2023/04/15 06:40:06;;;;;;;3.15;2.50;;;;;;;29.83;28.81;98911.94;5070168;28;20198;-52
2023/04/15 06:42:50;;;;;;;2.38;2.17;;;;;;;30.45;28.39;98917.00;5070468;28;20202;-53
2023/04/15 06:48:40;;;;;;;3.47;2.53;;;;;;;30.48;28.43;98913.94;5068828;28;20652;-53
2023/04/15 06:51:31;;;;;;;3.17;2.05;;;;;;;31.91;27.26;98925.66;5068651;28;20226;-53
2023/04/15 06:54:20;;;;;;;6.97;3.95;;;;;;;30.84;28.11;98919.38;5066814;28;20280;-53
2023/04/15 06:57:06;;;;;;;6.70;5.65;;;;;;;29.37;30.25;98913.78;5068774;28;20200;-57
2023/04/15 07:00:00;;;;;;;2.85;2.60;;;;;;;29.75;30.31;98917.38;5069879;28;20231;-54
2023/04/15 07:05:46;;;;;;;5.18;3.33;;;;;;;28.46;32.30;98917.94;5069512;28;20200;-52
2023/04/15 07:08:38;;;;;;;3.20;2.70;;;;;;;28.71;32.30;98916.00;5064818;28;20192;-53
2023/04/15 07:11:49;;;;;;;3.90;2.55;;;;;;;29.21;32.01;98920.09;5068947;28;20247;-53
2023/04/15 07:14:16;;;;;;;5.95;3.80;;;;;;;30.33;30.30;98906.75;5068677;28;20286;-53
2023/04/15 07:16:43;;;;;;;7.40;2.85;;;;;;;31.40;29.46;98925.78;5069634;28;20196;-52
2023/04/15 07:19:10;;;;;;;3.65;3.35;;;;;;;31.56;29.45;98924.72;5069515;28;20204;-53
2023/04/15 07:21:47;;;;;;;7.15;4.57;;;;;;;31.00;29.75;98924.53;5070707;28;20192;-52
2023/04/15 07:24:40;;;;;;;4.25;2.80;;;;;;;30.62;30.30;98935.38;5067951;28;20208;-53
2023/04/15 07:27:28;;;;;;;4.28;3.38;;;;;;;30.83;30.24;98937.28;5068675;28;20192;-58
2023/04/15 07:30:08;;;;;;;7.50;5.07;;;;;;;31.39;29.48;98937.53;5068323;28;20297;-57
2023/04/15 07:32:48;;;;;;;5.93;4.28;;;;;;;31.09;30.12;98944.84;5068567;28;20208;-57
2023/04/15 07:35:45;;;;;;;4.18;3.88;;;;;;;31.46;29.77;98949.19;5067107;28;20312;-56
2023/04/15 07:38:16;;;;;;;4.55;3.72;;;;;;;31.40;29.94;98929.31;5067739;28;20227;-56
2023/04/15 07:40:57;;;;;;;4.90;4.30;;;;;;;30.83;30.75;98936.47;5068220;28;20294;-56
2023/04/15 07:43:50;;;;;;;5.85;5.00;;;;;;;29.94;31.51;98933.72;5067683;28;20691;-57
2023/04/15 07:46:33;;;;;;;4.10;3.80;;;;;;;30.92;30.38;98938.03;5067969;28;20722;-57
2023/04/15 07:49:11;;;;;;;4.07;3.67;;;;;;;31.08;29.88;98932.44;5068263;28;20562;-56
2023/04/15 07:52:05;;;;;;;5.68;4.50;;;;;;;30.92;29.55;98928.16;5067821;28;20219;-52
2023/04/15 07:54:58;;;;;;;6.07;3.83;;;;;;;31.23;29.20;98932.44;5067916;28;20200;-57
2023/04/15 07:57:46;;;;;;;9.18;3.60;;;;;;;32.04;28.15;98936.50;5068411;28;20735;-57
2023/04/15 08:00:30;;;;;;;8.48;4.80;;;;;;;32.79;27.53;98949.19;5067443;28;20196;-57
2023/04/15 08:03:20;;;;;;;5.93;4.93;;;;;;;33.35;27.48;98951.66;5068404;28;20753;-57
2023/04/15 08:06:07;;;;;;;9.13;5.80;;;;;;;32.93;26.80;98944.69;5067959;28;20719;-57
2023/04/15 08:11:37;;;;;;;4.68;4.28;;;;;;;32.62;27.07;98947.84;5067871;28;20299;-57
2023/04/15 08:14:18;;;;;;;8.00;4.57;;;;;;;32.45;26.94;98945.47;5068107;28;20592;-56
2023/04/15 08:16:58;;;;;;;5.38;4.32;;;;;;;32.08;26.88;98946.63;5066263;28;20239;-58
2023/04/15 08:19:41;;;;;;;6.38;3.60;;;;;;;32.53;26.21;98949.84;5068090;28;20703;-53
2023/04/15 08:22:29;;;;;;;8.98;3.50;;;;;;;33.38;24.84;98953.94;5065329;28;20668;-52
2023/04/15 08:25:22;;;;;;;5.60;3.65;;;;;;;34.32;24.11;98945.72;5068131;28;20261;-53
2023/04/15 08:28:16;;;;;;;4.72;3.30;;;;;;;33.41;24.42;98951.66;5067292;28;20200;-54
2023/04/15 08:30:59;;;;;;;5.70;3.42;;;;;;;34.00;24.90;98917.75;5076312;28;20234;-53
2023/04/15 08:33:47;;;;;;;5.18;3.90;;;;;;;34.22;25.22;98944.25;5067307;28;20196;-53
2023/04/15 08:39:34;;;;;;;7.05;4.43;;;;;;;35.51;23.85;98941.50;5067043;28;20234;-54
2023/04/15 08:42:18;;;;;;;5.57;3.78;;;;;;;35.33;23.68;98933.31;5068954;28;20200;-56
2023/04/15 08:45:23;;;;;;;4.05;3.70;;;;;;;36.05;23.25;98941.91;5064931;28;20667;-58
2023/04/15 08:48:32;;;;;;;8.85;4.30;;;;;;;36.16;22.59;98947.44;5069406;28;20262;-58
2023/04/15 08:51:19;;;;;;;5.70;4.25;;;;;;;33.69;25.00;98948.81;5070858;28;20607;-58
2023/04/15 08:54:07;;;;;;;4.80;4.40;;;;;;;33.11;25.66;98936.88;5071686;28;20196;-58
2023/04/15 08:57:01;;;;;;;5.22;4.72;;;;;;;31.71;27.05;98933.56;5071984;28;20197;-57
2023/04/15 08:59:53;;;;;;;15.23;8.18;;;;;;;31.98;27.31;98931.88;5071957;28;20207;-58
2023/04/15 09:02:39;;;;;;;12.13;6.43;;;;;;;31.77;27.23;98929.25;5070526;28;20279;-59
2023/04/15 09:05:31;;;;;;;4.95;4.45;;;;;;;31.01;27.71;98924.34;5072301;28;20254;-58
2023/04/15 09:08:24;;;;;;;5.57;4.22;;;;;;;32.04;26.88;98918.53;5071774;28;20203;-52
2023/04/15 09:11:18;;;;;;;4.97;4.35;;;;;;;31.84;26.80;98927.44;5070947;28;20224;-58
2023/04/15 09:14:01;;;;;;;5.28;3.83;;;;;;;32.37;25.85;98924.16;5070888;28;20200;-58
2023/04/15 09:17:03;;;;;;;5.38;3.50;;;;;;;32.68;25.66;98912.09;5070408;28;20229;-59
2023/04/15 09:22:47;;;;;;;5.90;3.65;;;;;;;31.70;26.41;98916.63;5069871;28;20200;-58
2023/04/15 09:25:34;;;;;;;3.90;3.60;;;;;;;30.35;28.71;98909.25;5069749;28;20196;-57
2023/04/15 09:28:26;;;;;;;5.05;3.78;;;;;;;28.87;30.13;98880.41;5070740;28;20201;-57
2023/04/15 09:31:13;;;;;;;3.92;3.50;;;;;;;28.77;30.70;98901.97;5071247;28;20219;-56
2023/04/15 09:34:27;;;;;;;7.28;3.83;;;;;;;28.31;31.14;98889.47;5071476;28;20228;-57
2023/04/15 09:37:12;;;;;;;3.95;3.60;;;;;;;27.95;31.38;98897.03;5069567;28;20196;-57
2023/04/15 09:40:04;;;;;;;4.38;3.97;;;;;;;28.03;31.29;98859.66;5071060;28;20707;-58
2023/04/15 09:43:17;;;;;;;5.03;3.53;;;;;;;27.53;32.11;98891.91;5071055;28;20716;-57
2023/04/15 09:46:09;;;;;;;4.07;3.28;;;;;;;26.47;33.70;98878.34;5071070;28;20254;-60
2023/04/15 09:49:25;;;;;;;5.55;4.10;;;;;;;27.39;32.61;98891.56;5071063;28;20231;-56
2023/04/15 09:52:21;;;;;;;6.93;2.92;;;;;;;27.87;31.12;98886.41;5071220;28;20219;-60
2023/04/15 09:55:10;;;;;;;5.60;3.38;;;;;;;28.27;30.55;98888.97;5069300;28;20265;-57
2023/04/15 09:57:44;;;;;;;4.15;2.80;;;;;;;29.51;28.42;98881.78;5079427;28;20188;-57
2023/04/15 10:00:40;;;;;;;9.00;3.10;;;;;;;29.63;28.11;98903.59;5079142;28;20200;-53
2023/04/15 10:03:29;;;;;;;3.55;3.25;;;;;;;27.77;29.26;98897.22;5080873;28;20278;-53
2023/04/15 10:06:13;;;;;;;4.32;2.63;;;;;;;26.74;30.44;98888.75;5078735;28;20582;-57
2023/04/15 10:08:55;;;;;;;4.05;2.33;;;;;;;25.88;31.05;98885.31;5068328;28;20188;-53
2023/04/15 10:11:44;;;;;;;5.45;2.60;;;;;;;25.17;31.88;98872.09;5067168;28;20212;-55
2023/04/15 10:14:39;;;;;;;3.80;2.47;;;;;;;24.49;32.70;98866.38;5080521;28;20223;-53
2023/04/15 10:17:32;;;;;;;3.47;2.60;;;;;;;24.06;34.00;98848.41;5080684;28;20207;-52
2023/04/15 10:20:21;;;;;;;5.40;2.55;;;;;;;24.02;33.59;98854.16;5079551;28;20281;-53
2023/04/15 10:22:55;;;;;;;4.35;2.70;;;;;;;23.41;35.89;98849.25;5080971;28;20207;-56
2023/04/15 10:25:23;;;;;;;4.55;3.70;;;;;;;23.16;37.07;98845.34;5079423;28;20187;-57
2023/04/15 10:28:06;;;;;;;7.32;5.03;;;;;;;22.92;38.95;98831.69;5078195;28;20676;-57
2023/04/15 10:30:58;;;;;;;5.18;4.53;;;;;;;22.46;38.99;98828.69;5072587;28;20212;-56
2023/04/15 10:33:46;;;;;;;8.05;4.70;;;;;;;22.42;39.13;98824.66;5079829;28;20192;-57
2023/04/15 10:40:04;;;;;;;3.83;3.45;;;;;;;22.30;38.64;98825.72;4596591;27;14766770;-56
2023/04/15 10:42:52;;;;;;;5.53;4.93;;;;;;;22.23;41.76;98819.31;5116961;28;20190;-57
2023/04/15 10:45:45;;;;;;;7.20;5.13;;;;;;;22.20;41.52;98821.38;5115752;28;20293;-53
2023/04/15 10:48:29;;;;;;;5.72;5.10;;;;;;;22.25;42.33;98812.06;5114159;28;20210;-51
2023/04/15 10:51:12;;;;;;;7.35;5.78;;;;;;;22.57;42.22;98808.41;5112377;28;20267;-54
2023/04/15 10:54:07;;;;;;;7.00;6.10;;;;;;;22.37;42.18;98818.09;5115824;28;20692;-53
2023/04/15 10:56:56;;;;;;;6.03;5.63;;;;;;;21.76;42.73;98810.19;5112976;28;20190;-54
2023/04/15 10:59:57;;;;;;;;;;;;;;;;;;;;;
2023/04/15 11:02:57;;;;;;;8.60;5.40;;;;;;;21.73;40.32;98808.66;5109939;28;20198;-53
2023/04/15 11:06:06;;;;;;;6.95;4.88;;;;;;;21.58;41.11;98804.66;5116065;28;20286;-54
2023/04/15 11:12:22;;;;;;;5.88;4.60;;;;;;;21.79;40.34;98806.44;5109263;28;20194;-53
2023/04/15 11:15:30;;;;;;;6.43;5.18;;;;;;;21.83;39.92;98799.94;5116752;28;20230;-55
2023/04/15 11:18:15;;;;;;;8.18;5.18;;;;;;;21.82;40.66;98790.31;5111982;28;20194;-56
2023/04/15 11:21:02;;;;;;;7.05;5.70;;;;;;;21.88;40.80;98793.28;5114736;28;20195;-56
2023/04/15 11:23:49;;;;;;;5.13;4.72;;;;;;;21.80;41.23;98798.38;5115803;28;20576;-55
2023/04/15 11:26:40;;;;;;;5.22;4.72;;;;;;;21.64;41.66;98785.66;5114196;28;20195;-52
2023/04/15 11:29:41;;;;;;;10.35;5.03;;;;;;;21.92;41.95;98789.41;5114906;28;20702;-57
2023/04/15 11:32:36;;;;;;;5.15;4.75;;;;;;;21.93;42.00;98791.06;5115205;28;20281;-56
2023/04/15 11:35:27;;;;;;;5.22;4.63;;;;;;;21.82;41.62;98788.53;5111175;28;20195;-51
2023/04/15 11:38:22;;;;;;;4.82;4.43;;;;;;;21.68;41.73;98784.41;5113799;28;20223;-51
2023/04/15 11:41:04;;;;;;;5.22;4.60;;;;;;;21.64;41.65;98780.38;5115700;28;20274;-55
2023/04/15 11:43:35;;;;;;;4.70;4.32;;;;;;;21.73;41.58;98776.13;5114710;28;20191;-53
2023/04/15 11:46:30;;;;;;;4.70;4.30;;;;;;;21.82;41.58;98777.13;5115297;28;20602;-54
2023/04/15 11:49:37;;;;;;;4.68;4.15;;;;;;;21.88;41.92;98768.69;5110340;28;20317;-56
2023/04/15 11:52:20;;;;;;;4.53;4.20;;;;;;;21.97;41.46;98763.41;5101700;28;20214;-53
2023/04/15 11:55:18;;;;;;;5.65;4.35;;;;;;;21.82;41.82;98755.97;5099291;28;20209;-57
2023/04/15 11:58:01;;;;;;;4.90;4.43;;;;;;;21.59;42.43;98758.81;5101220;28;20190;-56
2023/04/15 12:00:47;;;;;;;5.18;4.00;;;;;;;21.57;42.17;98747.53;5099564;28;20260;-56
2023/04/15 12:03:47;;;;;;;;;;;;;;;;;;;;;
2023/04/15 12:06:33;;;;;;;6.75;4.35;;;;;;;21.09;43.23;98734.06;5099768;28;20195;-56
2023/04/15 12:09:35;;;;;;;4.88;3.95;;;;;;;21.12;43.06;98762.81;5099327;28;20627;-56
2023/04/15 12:12:24;;;;;;;9.55;3.90;;;;;;;21.07;43.59;98748.34;5097192;28;20205;-56
2023/04/15 12:15:00;;;;;;;4.32;3.22;;;;;;;21.17;43.49;98738.69;5098837;28;20563;-56
2023/04/15 12:17:44;;;;;;;7.78;3.50;;;;;;;21.20;43.58;98738.47;5099651;28;20574;-57
2023/04/15 12:20:39;;;;;;;3.83;2.67;;;;;;;21.33;43.23;98739.09;5101963;28;20202;-56
2023/04/15 12:23:31;;;;;;;2.67;2.47;;;;;;;21.36;43.41;98739.66;5100962;28;20196;-56
2023/04/15 12:26:15;;;;;;;5.20;3.05;;;;;;;21.37;44.39;98743.13;5098570;28;20202;-56
2023/04/15 12:29:15;;;;;;;5.32;2.72;;;;;;;21.41;45.36;98739.28;5100363;28;20218;-56
2023/04/15 12:32:20;;;;;;;3.97;2.58;;;;;;;21.38;44.58;98736.88;5100408;28;20551;-56
2023/04/15 12:35:13;;;;;;;2.63;2.42;;;;;;;21.32;45.37;98727.69;5101423;28;20199;-56
2023/04/15 12:38:09;;;;;;;;;;;;;;;;;;;;;
2023/04/15 12:41:04;;;;;;;3.13;1.90;;;;;;;21.60;45.38;98742.00;5094516;28;20595;-57
2023/04/15 12:43:46;;;;;;;4.38;2.17;;;;;;;21.34;46.10;98738.09;5101369;28;20227;-56
2023/04/15 12:46:29;;;;;;;4.00;2.30;;;;;;;21.37;46.50;98738.69;5101476;28;20629;-56
2023/04/15 12:52:06;;;;;;;2.38;1.85;;;;;;;21.35;46.60;98727.41;5100880;28;20230;-57
2023/04/15 12:54:55;;;;;;;2.03;1.90;;;;;;;21.28;46.47;98746.56;5097807;28;20190;-56
2023/04/15 12:57:46;;;;;;;3.70;2.10;;;;;;;21.24;46.80;98731.94;5096131;28;20195;-56
2023/04/15 13:00:32;;;;;;;2.75;2.10;;;;;;;21.45;46.94;98740.66;5100548;28;20195;-56
2023/04/15 13:03:14;;;;;;;4.40;2.42;;;;;;;21.46;47.29;98728.31;5097776;28;20231;-56
2023/04/15 13:05:51;;;;;;;2.33;2.13;;;;;;;21.55;47.63;98744.22;5107490;28;20217;-56
2023/04/15 13:08:41;;;;;;;4.78;2.25;;;;;;;21.51;47.94;98737.50;5108835;27;20656;-53
2023/04/15 13:11:34;;;;;;;2.80;2.10;;;;;;;21.40;48.47;98737.59;5098580;28;20590;-54
2023/04/15 13:14:18;;;;;;;2.40;2.00;;;;;;;21.60;48.13;98731.44;5097505;28;20187;-52
2023/04/15 13:16:50;;;;;;;3.20;2.35;;;;;;;21.73;47.85;98734.69;5098418;28;20195;-52
2023/04/15 13:19:31;;;;;;;2.55;2.22;;;;;;;21.62;48.38;98737.44;5108694;28;20285;-53
2023/04/15 13:22:19;;;;;;;3.50;1.95;;;;;;;21.49;49.05;98735.97;5109917;28;20583;-53
2023/04/15 13:25:00;;;;;;;4.78;1.95;;;;;;;21.51;49.24;98732.22;5107626;27;20194;-53
2023/04/15 13:27:38;;;;;;;4.82;2.40;;;;;;;21.49;49.29;98723.59;5099111;28;20255;-51
2023/04/15 13:30:26;;;;;;;4.13;2.40;;;;;;;21.54;49.26;98726.69;5097318;28;20751;-52
2023/04/15 13:33:31;;;;;;;3.50;2.25;;;;;;;21.51;49.21;98723.47;5083673;28;20679;-57
2023/04/15 13:36:18;;;;;;;3.15;2.42;;;;;;;21.41;49.83;98715.50;5088357;28;20282;-57
2023/04/15 13:42:05;;;;;;;4.55;2.28;;;;;;;21.31;49.73;98709.34;5089465;28;20199;-53
2023/04/15 13:47:54;;;;;;;2.28;2.00;;;;;;;21.58;49.88;98712.25;5088837;28;20203;-52
2023/04/15 13:50:46;;;;;;;2.28;2.08;;;;;;;21.63;50.12;98703.94;5089985;28;20195;-53
2023/04/15 13:53:30;;;;;;;4.47;2.25;;;;;;;21.69;50.41;98703.38;5090145;28;20199;-52
2023/04/15 13:56:20;;;;;;;3.25;2.53;;;;;;;21.81;50.89;98701.47;5088236;28;20227;-53
2023/04/15 13:59:07;;;;;;;3.80;2.20;;;;;;;21.85;50.30;98709.00;5087954;28;20231;-52
2023/04/15 14:01:56;;;;;;;3.97;2.85;;;;;;;21.84;50.21;98695.94;5089862;28;20578;-52
2023/04/15 14:04:51;;;;;;;4.80;3.05;;;;;;;21.88;50.51;98714.03;5088806;28;20625;-51
2023/04/15 14:07:28;;;;;;;4.68;2.60;;;;;;;21.74;50.77;98701.19;5088694;28;20199;-51
2023/04/15 14:10:14;;;;;;;10.82;3.60;;;;;;;21.59;51.64;98707.78;5089825;28;20606;-55
2023/04/15 14:13:13;;;;;;;4.63;2.22;;;;;;;21.48;51.18;98703.44;5088301;28;20201;-56
2023/04/15 14:16:02;;;;;;;3.72;1.70;;;;;;;21.57;51.30;98717.66;5089642;28;20583;-56